Terminal Aerodrome Forecast
Issued by NWS

Home | Current Version | Previous Version | Text Only | Print | Product List | Glossary On
Versions: 1 2 3 4 5 6 7 8 9 10 11 12 13 14 15 16 17 18
000
FTUS45 KMSO 251138
TAFSMN
TAF
KSMN 251138Z 2512/2612 VRB04KT P6SM SCT150
     FM252000 36007KT P6SM VCSH BKN060
     FM252300 30009KT P6SM -SHRA BKN050
     FM260200 VRB05KT P6SM VCSH BKN100
     FM260800 VRB03KT P6SM SCT120
      AMD LTD TO CLD VIS AND WIND=

USA.gov is the U.S. government's official web portal to all federal, state and local government web resources and services.